sensor_id;sensor_type;location;lat;lon;timestamp;P1;durP1;ratioP1;P2;durP2;ratioP2
2458;SDS011;1241;50.920;6.936;2023-05-14T00:01:26;23.45;;;21.15;;
2458;SDS011;1241;50.920;6.936;2023-05-14T00:03:52;23.45;;;21.35;;
2458;SDS011;1241;50.920;6.936;2023-05-14T00:06:18;20.85;;;18.95;;
2458;SDS011;1241;50.920;6.936;2023-05-14T00:08:43;23.45;;;21.35;;
2458;SDS011;1241;50.920;6.936;2023-05-14T00:11:12;22.50;;;20.50;;
2458;SDS011;1241;50.920;6.936;2023-05-14T00:13:38;24.35;;;22.15;;
2458;SDS011;1241;50.920;6.936;2023-05-14T00:16:03;24.13;;;21.80;;
2458;SDS011;1241;50.920;6.936;2023-05-14T00:18:29;24.67;;;22.17;;
2458;SDS011;1241;50.920;6.936;2023-05-14T00:20:55;24.45;;;22.15;;
2458;SDS011;1241;50.920;6.936;2023-05-14T00:23:21;27.00;;;24.40;;
2458;SDS011;1241;50.920;6.936;2023-05-14T00:25:47;23.73;;;21.50;;
2458;SDS011;1241;50.920;6.936;2023-05-14T00:28:13;25.20;;;22.90;;
2458;SDS011;1241;50.920;6.936;2023-05-14T00:30:38;24.40;;;22.05;;
2458;SDS011;1241;50.920;6.936;2023-05-14T00:33:05;24.20;;;21.80;;
2458;SDS011;1241;50.920;6.936;2023-05-14T00:35:31;24.67;;;22.38;;
2458;SDS011;1241;50.920;6.936;2023-05-14T00:37:59;24.98;;;22.58;;
2458;SDS011;1241;50.920;6.936;2023-05-14T00:40:26;25.15;;;22.85;;
2458;SDS011;1241;50.920;6.936;2023-05-14T00:42:52;23.98;;;21.77;;
2458;SDS011;1241;50.920;6.936;2023-05-14T00:45:18;23.85;;;21.75;;
2458;SDS011;1241;50.920;6.936;2023-05-14T00:47:44;23.87;;;21.47;;
2458;SDS011;1241;50.920;6.936;2023-05-14T00:50:10;25.05;;;22.58;;
2458;SDS011;1241;50.920;6.936;2023-05-14T00:52:37;25.77;;;23.42;;
2458;SDS011;1241;50.920;6.936;2023-05-14T00:55:03;26.90;;;24.30;;
2458;SDS011;1241;50.920;6.936;2023-05-14T00:57:31;25.02;;;22.63;;
2458;SDS011;1241;50.920;6.936;2023-05-14T00:59:57;25.17;;;22.70;;
2458;SDS011;1241;50.920;6.936;2023-05-14T01:02:23;25.60;;;23.20;;
2458;SDS011;1241;50.920;6.936;2023-05-14T01:04:50;25.75;;;23.35;;
2458;SDS011;1241;50.920;6.936;2023-05-14T01:09:55;23.45;;;21.25;;
2458;SDS011;1241;50.920;6.936;2023-05-14T01:15:14;24.05;;;21.85;;
2458;SDS011;1241;50.920;6.936;2023-05-14T01:17:53;23.05;;;21.05;;
2458;SDS011;1241;50.920;6.936;2023-05-14T01:20:23;25.30;;;22.50;;
2458;SDS011;1241;50.920;6.936;2023-05-14T01:22:50;23.17;;;20.80;;
2458;SDS011;1241;50.920;6.936;2023-05-14T01:25:16;24.40;;;21.90;;
2458;SDS011;1241;50.920;6.936;2023-05-14T01:27:45;22.57;;;20.60;;
2458;SDS011;1241;50.920;6.936;2023-05-14T01:30:28;24.20;;;21.98;;
2458;SDS011;1241;50.920;6.936;2023-05-14T01:33:21;25.33;;;22.92;;
2458;SDS011;1241;50.920;6.936;2023-05-14T01:35:51;23.23;;;21.02;;
2458;SDS011;1241;50.920;6.936;2023-05-14T01:38:18;22.42;;;20.33;;
2458;SDS011;1241;50.920;6.936;2023-05-14T01:40:45;24.98;;;22.65;;
2458;SDS011;1241;50.920;6.936;2023-05-14T01:43:12;22.05;;;20.02;;
2458;SDS011;1241;50.920;6.936;2023-05-14T01:45:39;22.63;;;20.63;;
2458;SDS011;1241;50.920;6.936;2023-05-14T01:48:06;22.83;;;20.83;;
2458;SDS011;1241;50.920;6.936;2023-05-14T01:50:32;21.83;;;19.90;;
2458;SDS011;1241;50.920;6.936;2023-05-14T01:52:58;22.70;;;20.60;;
2458;SDS011;1241;50.920;6.936;2023-05-14T01:55:25;23.50;;;21.40;;
2458;SDS011;1241;50.920;6.936;2023-05-14T01:57:51;21.02;;;19.13;;
2458;SDS011;1241;50.920;6.936;2023-05-14T02:00:17;21.65;;;19.67;;
2458;SDS011;1241;50.920;6.936;2023-05-14T02:02:43;21.10;;;19.00;;
2458;SDS011;1241;50.920;6.936;2023-05-14T02:05:11;22.38;;;20.40;;
2458;SDS011;1241;50.920;6.936;2023-05-14T02:07:37;21.05;;;19.08;;
2458;SDS011;1241;50.920;6.936;2023-05-14T02:10:03;20.58;;;18.67;;
2458;SDS011;1241;50.920;6.936;2023-05-14T02:12:29;23.23;;;21.13;;
2458;SDS011;1241;50.920;6.936;2023-05-14T02:14:55;23.13;;;21.02;;
2458;SDS011;1241;50.920;6.936;2023-05-14T02:17:21;22.40;;;20.50;;
2458;SDS011;1241;50.920;6.936;2023-05-14T02:19:46;21.65;;;19.67;;
2458;SDS011;1241;50.920;6.936;2023-05-14T02:22:12;19.85;;;18.15;;
2458;SDS011;1241;50.920;6.936;2023-05-14T02:24:38;21.30;;;19.10;;
2458;SDS011;1241;50.920;6.936;2023-05-14T02:27:04;21.98;;;20.08;;
2458;SDS011;1241;50.920;6.936;2023-05-14T02:29:30;20.95;;;18.95;;
2458;SDS011;1241;50.920;6.936;2023-05-14T02:31:56;22.55;;;20.55;;
2458;SDS011;1241;50.920;6.936;2023-05-14T02:34:22;22.63;;;20.52;;
2458;SDS011;1241;50.920;6.936;2023-05-14T02:36:49;24.00;;;21.75;;
2458;SDS011;1241;50.920;6.936;2023-05-14T02:39:14;22.10;;;20.10;;
2458;SDS011;1241;50.920;6.936;2023-05-14T02:41:44;22.00;;;20.00;;
2458;SDS011;1241;50.920;6.936;2023-05-14T02:44:09;24.47;;;22.17;;
2458;SDS011;1241;50.920;6.936;2023-05-14T02:46:35;24.38;;;22.17;;
2458;SDS011;1241;50.920;6.936;2023-05-14T02:49:00;22.45;;;20.25;;
2458;SDS011;1241;50.920;6.936;2023-05-14T02:51:27;22.00;;;20.00;;
2458;SDS011;1241;50.920;6.936;2023-05-14T02:53:52;23.88;;;21.48;;
2458;SDS011;1241;50.920;6.936;2023-05-14T02:56:18;24.13;;;22.02;;
2458;SDS011;1241;50.920;6.936;2023-05-14T02:58:45;20.83;;;18.92;;
2458;SDS011;1241;50.920;6.936;2023-05-14T03:01:10;22.15;;;20.15;;
2458;SDS011;1241;50.920;6.936;2023-05-14T03:03:36;21.97;;;20.07;;
2458;SDS011;1241;50.920;6.936;2023-05-14T03:06:02;21.27;;;19.42;;
2458;SDS011;1241;50.920;6.936;2023-05-14T03:08:29;21.50;;;19.70;;
2458;SDS011;1241;50.920;6.936;2023-05-14T03:10:54;21.42;;;19.42;;
2458;SDS011;1241;50.920;6.936;2023-05-14T03:13:20;20.50;;;18.70;;
2458;SDS011;1241;50.920;6.936;2023-05-14T03:15:46;20.95;;;19.05;;
2458;SDS011;1241;50.920;6.936;2023-05-14T03:18:12;21.60;;;19.65;;
2458;SDS011;1241;50.920;6.936;2023-05-14T03:20:39;23.70;;;21.70;;
2458;SDS011;1241;50.920;6.936;2023-05-14T03:23:05;22.38;;;20.35;;
2458;SDS011;1241;50.920;6.936;2023-05-14T03:25:31;21.40;;;19.60;;
2458;SDS011;1241;50.920;6.936;2023-05-14T03:27:56;20.30;;;18.30;;
2458;SDS011;1241;50.920;6.936;2023-05-14T03:30:22;20.23;;;18.02;;
2458;SDS011;1241;50.920;6.936;2023-05-14T03:32:48;20.88;;;18.98;;
2458;SDS011;1241;50.920;6.936;2023-05-14T03:35:14;20.88;;;19.08;;
2458;SDS011;1241;50.920;6.936;2023-05-14T03:37:41;22.67;;;20.48;;
2458;SDS011;1241;50.920;6.936;2023-05-14T03:40:07;21.40;;;19.60;;
2458;SDS011;1241;50.920;6.936;2023-05-14T03:42:34;20.00;;;18.20;;
2458;SDS011;1241;50.920;6.936;2023-05-14T03:45:01;19.55;;;17.80;;
2458;SDS011;1241;50.920;6.936;2023-05-14T03:47:27;19.20;;;17.50;;
2458;SDS011;1241;50.920;6.936;2023-05-14T03:49:53;19.40;;;17.60;;
2458;SDS011;1241;50.920;6.936;2023-05-14T03:52:19;21.13;;;19.10;;
2458;SDS011;1241;50.920;6.936;2023-05-14T03:54:45;19.85;;;18.17;;
2458;SDS011;1241;50.920;6.936;2023-05-14T03:57:10;20.40;;;18.40;;
2458;SDS011;1241;50.920;6.936;2023-05-14T03:59:36;20.25;;;18.55;;
2458;SDS011;1241;50.920;6.936;2023-05-14T04:02:01;20.20;;;18.30;;
2458;SDS011;1241;50.920;6.936;2023-05-14T04:04:27;21.20;;;19.47;;
2458;SDS011;1241;50.920;6.936;2023-05-14T04:06:53;20.30;;;18.40;;
2458;SDS011;1241;50.920;6.936;2023-05-14T04:09:19;19.05;;;17.35;;
2458;SDS011;1241;50.920;6.936;2023-05-14T04:11:45;18.90;;;17.20;;
2458;SDS011;1241;50.920;6.936;2023-05-14T04:14:11;19.70;;;18.00;;
2458;SDS011;1241;50.920;6.936;2023-05-14T04:16:37;19.92;;;18.23;;
2458;SDS011;1241;50.920;6.936;2023-05-14T04:19:02;19.90;;;18.03;;
2458;SDS011;1241;50.920;6.936;2023-05-14T04:21:29;18.73;;;17.05;;
2458;SDS011;1241;50.920;6.936;2023-05-14T04:23:55;18.77;;;17.08;;
2458;SDS011;1241;50.920;6.936;2023-05-14T04:26:21;19.00;;;17.20;;
2458;SDS011;1241;50.920;6.936;2023-05-14T04:28:47;20.70;;;18.80;;
2458;SDS011;1241;50.920;6.936;2023-05-14T04:31:13;19.13;;;17.42;;
2458;SDS011;1241;50.920;6.936;2023-05-14T04:33:39;18.50;;;16.90;;
2458;SDS011;1241;50.920;6.936;2023-05-14T04:36:05;16.17;;;14.77;;
2458;SDS011;1241;50.920;6.936;2023-05-14T04:38:31;15.32;;;14.02;;
2458;SDS011;1241;50.920;6.936;2023-05-14T04:40:57;13.70;;;12.57;;
2458;SDS011;1241;50.920;6.936;2023-05-14T04:43:22;13.90;;;12.70;;
2458;SDS011;1241;50.920;6.936;2023-05-14T04:45:48;13.63;;;12.52;;
2458;SDS011;1241;50.920;6.936;2023-05-14T04:48:15;13.68;;;12.27;;
2458;SDS011;1241;50.920;6.936;2023-05-14T04:50:41;13.25;;;12.25;;
2458;SDS011;1241;50.920;6.936;2023-05-14T04:53:08;12.40;;;11.40;;
2458;SDS011;1241;50.920;6.936;2023-05-14T04:55:34;12.55;;;11.65;;
2458;SDS011;1241;50.920;6.936;2023-05-14T04:58:00;12.77;;;11.60;;
2458;SDS011;1241;50.920;6.936;2023-05-14T05:00:26;12.25;;;11.25;;
2458;SDS011;1241;50.920;6.936;2023-05-14T05:02:52;13.10;;;12.00;;
2458;SDS011;1241;50.920;6.936;2023-05-14T05:05:18;12.60;;;11.60;;
2458;SDS011;1241;50.920;6.936;2023-05-14T05:07:44;12.68;;;11.70;;
2458;SDS011;1241;50.920;6.936;2023-05-14T05:10:10;12.50;;;11.40;;
2458;SDS011;1241;50.920;6.936;2023-05-14T05:12:36;13.50;;;12.30;;
2458;SDS011;1241;50.920;6.936;2023-05-14T05:15:02;13.75;;;12.52;;
2458;SDS011;1241;50.920;6.936;2023-05-14T05:17:28;13.77;;;12.57;;
2458;SDS011;1241;50.920;6.936;2023-05-14T05:19:54;13.33;;;12.33;;
2458;SDS011;1241;50.920;6.936;2023-05-14T05:22:19;13.50;;;12.50;;
2458;SDS011;1241;50.920;6.936;2023-05-14T05:24:45;13.63;;;12.53;;
2458;SDS011;1241;50.920;6.936;2023-05-14T05:27:11;13.88;;;12.48;;
2458;SDS011;1241;50.920;6.936;2023-05-14T05:29:37;13.65;;;12.55;;
2458;SDS011;1241;50.920;6.936;2023-05-14T05:32:03;14.67;;;13.47;;
2458;SDS011;1241;50.920;6.936;2023-05-14T05:34:29;14.37;;;13.27;;
2458;SDS011;1241;50.920;6.936;2023-05-14T05:36:55;14.77;;;13.57;;
2458;SDS011;1241;50.920;6.936;2023-05-14T05:39:20;14.57;;;13.30;;
2458;SDS011;1241;50.920;6.936;2023-05-14T05:41:46;15.80;;;14.40;;
2458;SDS011;1241;50.920;6.936;2023-05-14T05:44:12;16.75;;;15.35;;
2458;SDS011;1241;50.920;6.936;2023-05-14T05:46:37;15.00;;;13.80;;
2458;SDS011;1241;50.920;6.936;2023-05-14T05:49:03;15.60;;;14.20;;
2458;SDS011;1241;50.920;6.936;2023-05-14T05:51:29;15.32;;;14.02;;
2458;SDS011;1241;50.920;6.936;2023-05-14T05:53:55;17.03;;;15.43;;
2458;SDS011;1241;50.920;6.936;2023-05-14T05:56:21;15.47;;;14.27;;
2458;SDS011;1241;50.920;6.936;2023-05-14T05:58:46;15.13;;;13.83;;
2458;SDS011;1241;50.920;6.936;2023-05-14T06:01:12;16.90;;;15.50;;
2458;SDS011;1241;50.920;6.936;2023-05-14T06:03:38;16.83;;;15.63;;
2458;SDS011;1241;50.920;6.936;2023-05-14T06:06:04;18.40;;;16.90;;
2458;SDS011;1241;50.920;6.936;2023-05-14T06:08:30;17.80;;;16.30;;
2458;SDS011;1241;50.920;6.936;2023-05-14T06:10:56;17.17;;;15.67;;
2458;SDS011;1241;50.920;6.936;2023-05-14T06:13:21;17.13;;;15.73;;
2458;SDS011;1241;50.920;6.936;2023-05-14T06:15:47;17.70;;;16.30;;
2458;SDS011;1241;50.920;6.936;2023-05-14T06:18:13;17.17;;;15.67;;
2458;SDS011;1241;50.920;6.936;2023-05-14T06:20:39;18.00;;;16.63;;
2458;SDS011;1241;50.920;6.936;2023-05-14T06:23:05;16.17;;;14.73;;
2458;SDS011;1241;50.920;6.936;2023-05-14T06:25:35;16.92;;;15.63;;
2458;SDS011;1241;50.920;6.936;2023-05-14T06:28:01;16.55;;;15.25;;
2458;SDS011;1241;50.920;6.936;2023-05-14T06:30:27;17.70;;;16.10;;
2458;SDS011;1241;50.920;6.936;2023-05-14T06:32:52;16.73;;;15.43;;
2458;SDS011;1241;50.920;6.936;2023-05-14T06:35:18;16.47;;;15.17;;
2458;SDS011;1241;50.920;6.936;2023-05-14T06:37:44;17.30;;;15.90;;
2458;SDS011;1241;50.920;6.936;2023-05-14T06:40:10;17.37;;;15.97;;
2458;SDS011;1241;50.920;6.936;2023-05-14T06:42:37;17.85;;;16.45;;
2458;SDS011;1241;50.920;6.936;2023-05-14T06:45:03;16.67;;;15.13;;
2458;SDS011;1241;50.920;6.936;2023-05-14T06:47:30;16.15;;;14.82;;
2458;SDS011;1241;50.920;6.936;2023-05-14T06:50:02;16.85;;;15.55;;
2458;SDS011;1241;50.920;6.936;2023-05-14T06:52:28;15.10;;;13.70;;
2458;SDS011;1241;50.920;6.936;2023-05-14T06:54:53;14.53;;;13.33;;
2458;SDS011;1241;50.920;6.936;2023-05-14T06:57:19;15.82;;;14.48;;
2458;SDS011;1241;50.920;6.936;2023-05-14T06:59:45;15.15;;;13.80;;
2458;SDS011;1241;50.920;6.936;2023-05-14T07:02:11;16.17;;;14.77;;
2458;SDS011;1241;50.920;6.936;2023-05-14T07:04:36;16.35;;;15.05;;
2458;SDS011;1241;50.920;6.936;2023-05-14T07:07:05;16.77;;;15.27;;
2458;SDS011;1241;50.920;6.936;2023-05-14T07:09:31;15.95;;;14.75;;
2458;SDS011;1241;50.920;6.936;2023-05-14T07:11:56;15.70;;;14.48;;
2458;SDS011;1241;50.920;6.936;2023-05-14T07:14:22;17.55;;;16.15;;
2458;SDS011;1241;50.920;6.936;2023-05-14T07:16:48;17.80;;;16.23;;
2458;SDS011;1241;50.920;6.936;2023-05-14T07:19:13;16.60;;;15.20;;
2458;SDS011;1241;50.920;6.936;2023-05-14T07:21:39;15.30;;;13.90;;
2458;SDS011;1241;50.920;6.936;2023-05-14T07:24:05;15.70;;;14.10;;
2458;SDS011;1241;50.920;6.936;2023-05-14T07:26:30;16.02;;;14.82;;
2458;SDS011;1241;50.920;6.936;2023-05-14T07:28:56;15.95;;;14.65;;
2458;SDS011;1241;50.920;6.936;2023-05-14T07:31:22;15.75;;;14.35;;
2458;SDS011;1241;50.920;6.936;2023-05-14T07:33:48;16.30;;;14.90;;
2458;SDS011;1241;50.920;6.936;2023-05-14T07:36:13;15.47;;;14.27;;
2458;SDS011;1241;50.920;6.936;2023-05-14T07:38:39;14.57;;;13.47;;
2458;SDS011;1241;50.920;6.936;2023-05-14T07:41:05;14.40;;;13.10;;
2458;SDS011;1241;50.920;6.936;2023-05-14T07:43:30;14.83;;;13.73;;
2458;SDS011;1241;50.920;6.936;2023-05-14T07:45:56;14.73;;;13.43;;
2458;SDS011;1241;50.920;6.936;2023-05-14T07:48:22;14.13;;;12.93;;
2458;SDS011;1241;50.920;6.936;2023-05-14T07:50:48;13.90;;;12.70;;
2458;SDS011;1241;50.920;6.936;2023-05-14T07:53:14;13.35;;;12.25;;
2458;SDS011;1241;50.920;6.936;2023-05-14T07:55:39;14.50;;;13.30;;
2458;SDS011;1241;50.920;6.936;2023-05-14T07:58:06;13.20;;;12.10;;
2458;SDS011;1241;50.920;6.936;2023-05-14T08:00:31;11.70;;;10.80;;
2458;SDS011;1241;50.920;6.936;2023-05-14T08:02:57;11.90;;;11.00;;
2458;SDS011;1241;50.920;6.936;2023-05-14T08:05:23;10.70;;;9.80;;
2458;SDS011;1241;50.920;6.936;2023-05-14T08:07:48;11.85;;;10.95;;
2458;SDS011;1241;50.920;6.936;2023-05-14T08:10:14;12.10;;;10.90;;
2458;SDS011;1241;50.920;6.936;2023-05-14T08:12:39;11.70;;;10.80;;
2458;SDS011;1241;50.920;6.936;2023-05-14T08:15:06;10.00;;;9.00;;
2458;SDS011;1241;50.920;6.936;2023-05-14T08:17:33;11.40;;;10.60;;
2458;SDS011;1241;50.920;6.936;2023-05-14T08:19:59;10.82;;;10.02;;
2458;SDS011;1241;50.920;6.936;2023-05-14T08:22:25;11.63;;;10.63;;
2458;SDS011;1241;50.920;6.936;2023-05-14T08:24:54;10.07;;;9.27;;
2458;SDS011;1241;50.920;6.936;2023-05-14T08:27:20;9.60;;;8.80;;
2458;SDS011;1241;50.920;6.936;2023-05-14T08:29:47;9.45;;;8.55;;
2458;SDS011;1241;50.920;6.936;2023-05-14T08:32:12;9.90;;;9.10;;
2458;SDS011;1241;50.920;6.936;2023-05-14T08:34:38;8.43;;;7.72;;
2458;SDS011;1241;50.920;6.936;2023-05-14T08:37:03;8.82;;;8.13;;
2458;SDS011;1241;50.920;6.936;2023-05-14T08:39:29;8.82;;;8.13;;
2458;SDS011;1241;50.920;6.936;2023-05-14T08:41:55;8.00;;;7.40;;
2458;SDS011;1241;50.920;6.936;2023-05-14T08:44:27;7.75;;;7.15;;
2458;SDS011;1241;50.920;6.936;2023-05-14T08:47:01;8.43;;;7.63;;
2458;SDS011;1241;50.920;6.936;2023-05-14T08:52:01;8.23;;;7.53;;
2458;SDS011;1241;50.920;6.936;2023-05-14T08:54:28;7.43;;;6.93;;
2458;SDS011;1241;50.920;6.936;2023-05-14T08:56:56;7.13;;;6.53;;
2458;SDS011;1241;50.920;6.936;2023-05-14T08:59:26;7.17;;;6.40;;
2458;SDS011;1241;50.920;6.936;2023-05-14T09:02:04;7.05;;;6.45;;
2458;SDS011;1241;50.920;6.936;2023-05-14T09:04:34;6.28;;;5.88;;
2458;SDS011;1241;50.920;6.936;2023-05-14T09:07:01;6.90;;;6.40;;
2458;SDS011;1241;50.920;6.936;2023-05-14T09:09:27;7.70;;;7.10;;
2458;SDS011;1241;50.920;6.936;2023-05-14T09:11:53;6.70;;;6.20;;
2458;SDS011;1241;50.920;6.936;2023-05-14T09:14:21;5.90;;;5.50;;
2458;SDS011;1241;50.920;6.936;2023-05-14T09:16:50;6.57;;;6.07;;
2458;SDS011;1241;50.920;6.936;2023-05-14T09:19:17;6.75;;;6.05;;
2458;SDS011;1241;50.920;6.936;2023-05-14T09:21:44;7.53;;;6.93;;
2458;SDS011;1241;50.920;6.936;2023-05-14T09:24:18;7.20;;;6.60;;
2458;SDS011;1241;50.920;6.936;2023-05-14T09:26:53;5.95;;;5.45;;
2458;SDS011;1241;50.920;6.936;2023-05-14T09:29:20;6.20;;;5.80;;
2458;SDS011;1241;50.920;6.936;2023-05-14T09:31:51;6.25;;;5.85;;
2458;SDS011;1241;50.920;6.936;2023-05-14T09:36:57;6.70;;;6.20;;
2458;SDS011;1241;50.920;6.936;2023-05-14T09:39:24;6.25;;;5.85;;
2458;SDS011;1241;50.920;6.936;2023-05-14T09:41:50;6.70;;;6.20;;
2458;SDS011;1241;50.920;6.936;2023-05-14T09:44:17;7.30;;;6.70;;
2458;SDS011;1241;50.920;6.936;2023-05-14T09:46:44;6.80;;;6.30;;
2458;SDS011;1241;50.920;6.936;2023-05-14T09:49:10;6.68;;;6.13;;
2458;SDS011;1241;50.920;6.936;2023-05-14T09:51:36;6.97;;;6.40;;
2458;SDS011;1241;50.920;6.936;2023-05-14T09:54:03;8.80;;;8.00;;
2458;SDS011;1241;50.920;6.936;2023-05-14T09:56:29;10.32;;;9.43;;
2458;SDS011;1241;50.920;6.936;2023-05-14T09:58:56;9.70;;;8.70;;
2458;SDS011;1241;50.920;6.936;2023-05-14T10:01:22;7.30;;;6.70;;
2458;SDS011;1241;50.920;6.936;2023-05-14T10:03:49;8.10;;;7.50;;
2458;SDS011;1241;50.920;6.936;2023-05-14T10:06:16;6.88;;;6.38;;
2458;SDS011;1241;50.920;6.936;2023-05-14T10:08:45;6.60;;;6.10;;
2458;SDS011;1241;50.920;6.936;2023-05-14T10:11:36;8.27;;;7.68;;
2458;SDS011;1241;50.920;6.936;2023-05-14T10:16:43;7.13;;;6.60;;
2458;SDS011;1241;50.920;6.936;2023-05-14T10:19:14;6.60;;;6.00;;
2458;SDS011;1241;50.920;6.936;2023-05-14T10:21:43;7.65;;;7.03;;
2458;SDS011;1241;50.920;6.936;2023-05-14T10:24:12;7.88;;;7.25;;
2458;SDS011;1241;50.920;6.936;2023-05-14T10:26:39;8.10;;;7.40;;
2458;SDS011;1241;50.920;6.936;2023-05-14T10:29:06;8.10;;;7.50;;
2458;SDS011;1241;50.920;6.936;2023-05-14T10:31:44;9.90;;;8.98;;
2458;SDS011;1241;50.920;6.936;2023-05-14T10:34:30;9.80;;;9.00;;
2458;SDS011;1241;50.920;6.936;2023-05-14T10:39:58;11.00;;;10.00;;
2458;SDS011;1241;50.920;6.936;2023-05-14T10:42:27;11.10;;;10.30;;
2458;SDS011;1241;50.920;6.936;2023-05-14T10:44:58;10.55;;;9.70;;
2458;SDS011;1241;50.920;6.936;2023-05-14T10:47:26;10.02;;;9.23;;
2458;SDS011;1241;50.920;6.936;2023-05-14T10:49:54;9.40;;;8.70;;
2458;SDS011;1241;50.920;6.936;2023-05-14T10:52:21;9.82;;;9.02;;
2458;SDS011;1241;50.920;6.936;2023-05-14T10:54:49;10.25;;;9.45;;
2458;SDS011;1241;50.920;6.936;2023-05-14T10:57:16;11.35;;;10.45;;
2458;SDS011;1241;50.920;6.936;2023-05-14T10:59:43;10.38;;;9.48;;
2458;SDS011;1241;50.920;6.936;2023-05-14T11:02:18;9.70;;;8.90;;
2458;SDS011;1241;50.920;6.936;2023-05-14T11:05:04;10.25;;;9.27;;
2458;SDS011;1241;50.920;6.936;2023-05-14T11:07:42;9.70;;;8.88;;
2458;SDS011;1241;50.920;6.936;2023-05-14T11:12:45;9.13;;;8.43;;
2458;SDS011;1241;50.920;6.936;2023-05-14T11:15:16;13.50;;;12.20;;
2458;SDS011;1241;50.920;6.936;2023-05-14T11:17:43;10.93;;;10.00;;
2458;SDS011;1241;50.920;6.936;2023-05-14T11:20:10;10.95;;;10.07;;
2458;SDS011;1241;50.920;6.936;2023-05-14T11:22:36;10.00;;;9.10;;
2458;SDS011;1241;50.920;6.936;2023-05-14T11:25:03;11.32;;;10.32;;
2458;SDS011;1241;50.920;6.936;2023-05-14T11:27:31;10.85;;;9.95;;
2458;SDS011;1241;50.920;6.936;2023-05-14T11:29:58;13.23;;;12.23;;
2458;SDS011;1241;50.920;6.936;2023-05-14T11:32:28;11.52;;;10.52;;
2458;SDS011;1241;50.920;6.936;2023-05-14T11:34:55;12.85;;;11.75;;
2458;SDS011;1241;50.920;6.936;2023-05-14T11:37:21;11.40;;;10.40;;
2458;SDS011;1241;50.920;6.936;2023-05-14T11:42:19;12.52;;;11.52;;
2458;SDS011;1241;50.920;6.936;2023-05-14T11:44:47;10.90;;;9.98;;
2458;SDS011;1241;50.920;6.936;2023-05-14T11:47:14;12.85;;;11.75;;
2458;SDS011;1241;50.920;6.936;2023-05-14T11:49:42;11.10;;;10.20;;
2458;SDS011;1241;50.920;6.936;2023-05-14T11:52:08;10.45;;;9.65;;
2458;SDS011;1241;50.920;6.936;2023-05-14T11:54:36;11.07;;;10.18;;
2458;SDS011;1241;50.920;6.936;2023-05-14T11:57:10;10.80;;;9.82;;
2458;SDS011;1241;50.920;6.936;2023-05-14T11:59:40;10.50;;;9.60;;
2458;SDS011;1241;50.920;6.936;2023-05-14T12:02:09;10.10;;;9.30;;
2458;SDS011;1241;50.920;6.936;2023-05-14T12:04:40;9.15;;;8.25;;
2458;SDS011;1241;50.920;6.936;2023-05-14T12:07:07;12.05;;;10.85;;
2458;SDS011;1241;50.920;6.936;2023-05-14T12:09:38;11.15;;;10.25;;
2458;SDS011;1241;50.920;6.936;2023-05-14T12:12:07;11.57;;;10.68;;
2458;SDS011;1241;50.920;6.936;2023-05-14T12:14:37;12.57;;;11.40;;
2458;SDS011;1241;50.920;6.936;2023-05-14T12:17:10;11.13;;;10.13;;
2458;SDS011;1241;50.920;6.936;2023-05-14T12:19:41;9.93;;;8.93;;
2458;SDS011;1241;50.920;6.936;2023-05-14T12:22:08;11.00;;;10.13;;
2458;SDS011;1241;50.920;6.936;2023-05-14T12:24:35;10.00;;;9.07;;
2458;SDS011;1241;50.920;6.936;2023-05-14T12:27:01;10.15;;;9.35;;
2458;SDS011;1241;50.920;6.936;2023-05-14T12:29:27;9.90;;;9.00;;
2458;SDS011;1241;50.920;6.936;2023-05-14T12:31:55;11.02;;;10.13;;
2458;SDS011;1241;50.920;6.936;2023-05-14T12:34:28;11.85;;;10.85;;
2458;SDS011;1241;50.920;6.936;2023-05-14T12:36:53;10.60;;;9.70;;
2458;SDS011;1241;50.920;6.936;2023-05-14T12:39:19;10.70;;;9.80;;
2458;SDS011;1241;50.920;6.936;2023-05-14T12:41:45;11.90;;;10.90;;
2458;SDS011;1241;50.920;6.936;2023-05-14T12:44:10;9.55;;;8.65;;
2458;SDS011;1241;50.920;6.936;2023-05-14T12:46:36;9.30;;;8.40;;
2458;SDS011;1241;50.920;6.936;2023-05-14T12:49:02;6.90;;;6.30;;
2458;SDS011;1241;50.920;6.936;2023-05-14T12:51:28;5.80;;;5.40;;
2458;SDS011;1241;50.920;6.936;2023-05-14T12:53:54;6.30;;;5.80;;
2458;SDS011;1241;50.920;6.936;2023-05-14T12:56:19;6.73;;;6.17;;
2458;SDS011;1241;50.920;6.936;2023-05-14T12:58:51;5.20;;;4.70;;
2458;SDS011;1241;50.920;6.936;2023-05-14T13:01:18;5.57;;;5.15;;
2458;SDS011;1241;50.920;6.936;2023-05-14T13:03:43;5.22;;;4.72;;
2458;SDS011;1241;50.920;6.936;2023-05-14T13:06:09;4.38;;;4.07;;
2458;SDS011;1241;50.920;6.936;2023-05-14T13:08:35;5.20;;;4.80;;
2458;SDS011;1241;50.920;6.936;2023-05-14T13:11:01;5.00;;;4.60;;
2458;SDS011;1241;50.920;6.936;2023-05-14T13:13:26;5.30;;;4.90;;
2458;SDS011;1241;50.920;6.936;2023-05-14T13:15:52;4.90;;;4.50;;
2458;SDS011;1241;50.920;6.936;2023-05-14T13:18:18;4.97;;;4.57;;
2458;SDS011;1241;50.920;6.936;2023-05-14T13:20:44;5.95;;;5.35;;
2458;SDS011;1241;50.920;6.936;2023-05-14T13:23:11;5.00;;;4.60;;
2458;SDS011;1241;50.920;6.936;2023-05-14T13:25:37;5.68;;;5.28;;
2458;SDS011;1241;50.920;6.936;2023-05-14T13:28:03;4.93;;;4.50;;
2458;SDS011;1241;50.920;6.936;2023-05-14T13:30:29;4.68;;;4.28;;
2458;SDS011;1241;50.920;6.936;2023-05-14T13:32:56;5.20;;;4.80;;
2458;SDS011;1241;50.920;6.936;2023-05-14T13:35:22;5.75;;;5.25;;
2458;SDS011;1241;50.920;6.936;2023-05-14T13:37:48;6.03;;;5.40;;
2458;SDS011;1241;50.920;6.936;2023-05-14T13:40:13;5.40;;;5.10;;
2458;SDS011;1241;50.920;6.936;2023-05-14T13:42:39;4.90;;;4.50;;
2458;SDS011;1241;50.920;6.936;2023-05-14T13:45:05;6.15;;;4.65;;
2458;SDS011;1241;50.920;6.936;2023-05-14T13:47:31;5.38;;;4.97;;
2458;SDS011;1241;50.920;6.936;2023-05-14T13:49:57;5.10;;;4.70;;
2458;SDS011;1241;50.920;6.936;2023-05-14T13:52:23;4.85;;;4.45;;
2458;SDS011;1241;50.920;6.936;2023-05-14T13:54:49;5.10;;;4.70;;
2458;SDS011;1241;50.920;6.936;2023-05-14T13:57:15;6.22;;;5.18;;
2458;SDS011;1241;50.920;6.936;2023-05-14T13:59:41;4.50;;;4.20;;
2458;SDS011;1241;50.920;6.936;2023-05-14T14:02:07;5.07;;;4.57;;
2458;SDS011;1241;50.920;6.936;2023-05-14T14:04:33;4.73;;;4.43;;
2458;SDS011;1241;50.920;6.936;2023-05-14T14:06:59;4.97;;;4.47;;
2458;SDS011;1241;50.920;6.936;2023-05-14T14:09:24;5.03;;;4.63;;
2458;SDS011;1241;50.920;6.936;2023-05-14T14:11:50;4.78;;;4.38;;
2458;SDS011;1241;50.920;6.936;2023-05-14T14:14:16;4.50;;;4.10;;
2458;SDS011;1241;50.920;6.936;2023-05-14T14:16:42;4.55;;;4.25;;
2458;SDS011;1241;50.920;6.936;2023-05-14T14:19:08;4.80;;;4.50;;
2458;SDS011;1241;50.920;6.936;2023-05-14T14:21:34;4.85;;;4.45;;
2458;SDS011;1241;50.920;6.936;2023-05-14T14:24:03;4.60;;;4.20;;
2458;SDS011;1241;50.920;6.936;2023-05-14T14:26:30;4.90;;;4.50;;
2458;SDS011;1241;50.920;6.936;2023-05-14T14:28:56;4.90;;;4.50;;
2458;SDS011;1241;50.920;6.936;2023-05-14T14:31:21;4.77;;;4.37;;
2458;SDS011;1241;50.920;6.936;2023-05-14T14:33:47;5.00;;;4.60;;
2458;SDS011;1241;50.920;6.936;2023-05-14T14:36:13;5.00;;;4.60;;
2458;SDS011;1241;50.920;6.936;2023-05-14T14:38:38;5.40;;;4.90;;
2458;SDS011;1241;50.920;6.936;2023-05-14T14:41:04;5.20;;;4.80;;
2458;SDS011;1241;50.920;6.936;2023-05-14T14:43:34;5.20;;;4.80;;
2458;SDS011;1241;50.920;6.936;2023-05-14T14:46:00;4.80;;;4.40;;
2458;SDS011;1241;50.920;6.936;2023-05-14T14:48:32;5.03;;;4.63;;
2458;SDS011;1241;50.920;6.936;2023-05-14T14:51:01;5.32;;;4.93;;
2458;SDS011;1241;50.920;6.936;2023-05-14T14:53:29;4.30;;;4.00;;
2458;SDS011;1241;50.920;6.936;2023-05-14T14:55:56;4.90;;;4.50;;
2458;SDS011;1241;50.920;6.936;2023-05-14T14:58:22;5.18;;;4.75;;
2458;SDS011;1241;50.920;6.936;2023-05-14T15:00:49;5.95;;;4.38;;
2458;SDS011;1241;50.920;6.936;2023-05-14T15:03:17;5.00;;;4.60;;
2458;SDS011;1241;50.920;6.936;2023-05-14T15:05:43;5.10;;;4.80;;
2458;SDS011;1241;50.920;6.936;2023-05-14T15:08:09;4.90;;;4.50;;
2458;SDS011;1241;50.920;6.936;2023-05-14T15:10:35;4.33;;;4.03;;
2458;SDS011;1241;50.920;6.936;2023-05-14T15:13:05;4.80;;;4.40;;
2458;SDS011;1241;50.920;6.936;2023-05-14T15:15:31;5.18;;;4.68;;
2458;SDS011;1241;50.920;6.936;2023-05-14T15:17:58;5.30;;;4.80;;